createdAt,value
2023-05-19T00:00:30.806Z,13.83
2023-05-19T00:05:33.549Z,13.36
2023-05-19T00:10:35.350Z,13.58
2023-05-19T00:15:37.105Z,13.94
2023-05-19T00:20:38.884Z,13.90
2023-05-19T00:25:40.444Z,13.80
2023-05-19T00:30:41.944Z,13.86
2023-05-19T00:35:43.505Z,13.80
2023-05-19T00:40:45.587Z,13.79
2023-05-19T00:45:47.302Z,13.78
2023-05-19T00:50:50.833Z,13.56
2023-05-19T00:55:52.341Z,13.66
2023-05-19T01:00:56.118Z,13.63
2023-05-19T01:06:01.589Z,13.60
2023-05-19T01:11:04.172Z,13.61
2023-05-19T01:16:13.991Z,13.53
2023-05-19T01:21:38.430Z,13.44
2023-05-19T01:27:26.862Z,13.41
2023-05-19T01:32:30.027Z,13.25
2023-05-19T01:37:32.222Z,13.39
2023-05-19T01:42:37.352Z,13.22
2023-05-19T01:47:42.748Z,13.14
2023-05-19T01:52:44.363Z,13.10
2023-05-19T01:58:05.092Z,12.98
2023-05-19T02:03:26.027Z,12.76
2023-05-19T02:08:31.196Z,12.59
2023-05-19T02:13:37.842Z,12.61
2023-05-19T02:18:40.545Z,12.68
2023-05-19T02:23:42.156Z,12.58
2023-05-19T02:28:43.684Z,12.53
2023-05-19T02:33:45.185Z,12.54
2023-05-19T02:38:46.691Z,12.18
2023-05-19T02:43:48.190Z,12.40
2023-05-19T02:48:50.812Z,11.87
2023-05-19T02:53:52.322Z,12.03
2023-05-19T02:58:53.842Z,11.63
2023-05-19T03:03:55.774Z,11.48
2023-05-19T03:08:57.293Z,11.74
2023-05-19T03:13:58.897Z,11.36
2023-05-19T03:19:00.575Z,11.38
2023-05-19T03:24:02.503Z,11.73
2023-05-19T03:29:04.507Z,11.70
2023-05-19T03:34:09.765Z,11.76
2023-05-19T03:39:12.081Z,11.86
2023-05-19T03:44:14.295Z,11.75
2023-05-19T03:49:15.893Z,11.81
2023-05-19T03:54:32.599Z,11.75
2023-05-19T03:59:35.350Z,11.71
2023-05-19T04:04:38.605Z,11.76
2023-05-19T04:09:40.170Z,11.75
2023-05-19T04:14:41.657Z,11.71
2023-05-19T04:19:45.024Z,11.74
2023-05-19T04:24:47.124Z,11.77
2023-05-19T04:29:49.941Z,11.86
2023-05-19T04:34:51.765Z,11.93
2023-05-19T04:39:58.352Z,12.03
2023-05-19T04:45:03.527Z,11.54
2023-05-19T04:50:07.475Z,11.44
2023-05-19T04:55:11.188Z,11.03
2023-05-19T05:00:14.213Z,11.14
2023-05-19T05:05:37.464Z,11.45
2023-05-19T05:10:44.226Z,11.75
2023-05-19T05:15:59.504Z,11.69
2023-05-19T05:21:09.296Z,11.28
2023-05-19T05:26:18.737Z,11.89
2023-05-19T05:31:22.928Z,11.82
2023-05-19T05:36:24.482Z,11.78
2023-05-19T05:41:27.423Z,11.78
2023-05-19T05:46:32.328Z,11.99
2023-05-19T05:51:34.727Z,11.63
2023-05-19T05:56:37.596Z,11.89
2023-05-19T06:01:43.870Z,11.65
2023-05-19T06:06:46.297Z,11.92
2023-05-19T06:11:53.284Z,11.98
2023-05-19T06:16:55.658Z,12.15
2023-05-19T06:21:57.289Z,12.15
2023-05-19T06:26:59.470Z,12.71
2023-05-19T06:32:01.239Z,12.41
2023-05-19T06:37:03.771Z,12.73
2023-05-19T06:42:07.984Z,12.59
2023-05-19T06:47:29.280Z,12.83
2023-05-19T06:52:31.232Z,13.13
2023-05-19T06:57:32.997Z,13.03
2023-05-19T07:02:35.974Z,13.21
2023-05-19T07:07:38.722Z,13.40
2023-05-19T07:12:44.465Z,13.64
2023-05-19T07:17:47.176Z,13.87
2023-05-19T07:22:48.882Z,14.07
2023-05-19T07:27:50.955Z,13.97
2023-05-19T07:32:52.636Z,14.78
2023-05-19T07:37:56.523Z,14.96
2023-05-19T07:42:58.109Z,15.00
2023-05-19T07:47:59.620Z,14.90
2023-05-19T07:53:01.201Z,15.19
2023-05-19T07:58:02.702Z,15.58
2023-05-19T08:03:04.365Z,15.73
2023-05-19T08:08:06.119Z,15.79
2023-05-19T08:13:08.295Z,16.08
2023-05-19T08:18:11.236Z,16.36
2023-05-19T08:23:12.857Z,16.43
2023-05-19T08:28:14.413Z,16.47
2023-05-19T08:33:16.241Z,15.80
2023-05-19T08:38:17.727Z,16.54
2023-05-19T08:43:19.354Z,17.16
2023-05-19T08:48:22.070Z,17.76
2023-05-19T08:53:33.888Z,17.56
2023-05-19T08:58:37.295Z,18.10
2023-05-19T09:03:39.772Z,17.54
2023-05-19T09:08:42.290Z,17.87
2023-05-19T09:13:43.948Z,17.68
2023-05-19T09:18:56.483Z,17.82
2023-05-19T09:24:05.086Z,18.37
2023-05-19T09:29:16.447Z,19.07
2023-05-19T09:34:18.661Z,18.63
2023-05-19T09:39:21.930Z,19.09
2023-05-19T09:44:24.561Z,19.45
2023-05-19T09:49:32.780Z,18.76
2023-05-19T09:54:34.625Z,19.29
2023-05-19T09:59:38.845Z,18.87
2023-05-19T10:04:42.293Z,19.20
2023-05-19T10:09:44.780Z,19.86
2023-05-19T10:14:48.692Z,19.54
2023-05-19T10:19:52.205Z,19.50
2023-05-19T10:24:55.895Z,19.88
2023-05-19T10:30:02.074Z,20.36
2023-05-19T10:35:20.521Z,20.39
2023-05-19T10:40:28.473Z,20.43
2023-05-19T10:45:34.456Z,21.12
2023-05-19T10:50:37.770Z,20.35
2023-05-19T10:55:53.283Z,20.45
2023-05-19T11:01:00.924Z,20.41
2023-05-19T11:06:29.006Z,21.00
2023-05-19T11:11:44.897Z,21.27
2023-05-19T11:16:48.243Z,21.20
2023-05-19T11:21:55.224Z,21.90
2023-05-19T11:26:58.355Z,21.90
2023-05-19T11:32:00.629Z,21.60
2023-05-19T11:37:02.793Z,21.09
2023-05-19T11:42:04.506Z,21.68
2023-05-19T11:47:06.249Z,21.98
2023-05-19T11:52:09.092Z,21.56
2023-05-19T11:57:10.936Z,21.79
2023-05-19T12:02:28.008Z,20.42
2023-05-19T12:07:29.600Z,20.74
2023-05-19T12:12:32.027Z,22.26
2023-05-19T12:17:38.337Z,21.97
2023-05-19T12:22:39.882Z,22.75
2023-05-19T12:27:43.381Z,22.48
2023-05-19T12:32:46.785Z,22.06
2023-05-19T12:37:49.153Z,23.47
2023-05-19T12:42:53.409Z,22.79
2023-05-19T12:47:55.324Z,22.96
2023-05-19T12:52:58.410Z,23.32
2023-05-19T12:58:07.172Z,24.07
2023-05-19T13:03:15.961Z,21.75
2023-05-19T13:08:20.216Z,22.37
2023-05-19T13:13:22.051Z,23.71
2023-05-19T13:18:24.383Z,22.90
2023-05-19T13:23:26.325Z,21.87
2023-05-19T13:28:28.245Z,21.01
2023-05-19T13:33:29.764Z,22.04
2023-05-19T13:38:31.255Z,23.47
2023-05-19T13:43:32.739Z,21.37
2023-05-19T13:48:34.219Z,21.92
2023-05-19T13:53:35.786Z,22.43
2023-05-19T13:58:37.298Z,23.12
2023-05-19T14:03:38.881Z,23.67
2023-05-19T14:08:41.231Z,21.90
2023-05-19T14:13:43.411Z,22.14
2023-05-19T14:18:44.985Z,22.58
2023-05-19T14:23:46.588Z,23.32
2023-05-19T14:28:48.067Z,22.58
2023-05-19T14:33:49.793Z,21.27
2023-05-19T14:38:51.271Z,22.57
2023-05-19T14:43:52.794Z,22.68
2023-05-19T14:48:54.373Z,22.55
2023-05-19T14:53:56.341Z,22.58
2023-05-19T14:58:57.862Z,21.97
2023-05-19T15:03:59.392Z,22.41
2023-05-19T15:09:00.941Z,21.73
2023-05-19T15:14:02.434Z,22.04
2023-05-19T15:19:04.037Z,22.78
2023-05-19T15:24:05.854Z,21.82
2023-05-19T15:29:07.347Z,23.45
2023-05-19T15:34:08.913Z,22.74
2023-05-19T15:39:10.382Z,22.29
2023-05-19T15:44:12.013Z,22.29
2023-05-19T15:49:13.585Z,21.61
2023-05-19T15:54:15.154Z,22.01
2023-05-19T15:59:16.648Z,21.74
2023-05-19T16:04:18.169Z,21.79
2023-05-19T16:09:19.704Z,21.75
2023-05-19T16:14:21.193Z,22.02
2023-05-19T16:19:23.901Z,22.00
2023-05-19T16:24:25.502Z,22.07
2023-05-19T16:29:27.074Z,21.33
2023-05-19T16:34:30.580Z,21.13
2023-05-19T16:39:32.343Z,20.81
2023-05-19T16:44:33.819Z,21.15
2023-05-19T16:49:35.295Z,21.15
2023-05-19T16:54:36.978Z,20.65
2023-05-19T16:59:38.456Z,20.78
2023-05-19T17:04:39.938Z,20.94
2023-05-19T17:09:42.321Z,20.38
2023-05-19T17:14:44.162Z,20.59
2023-05-19T17:19:46.032Z,20.55
2023-05-19T17:24:47.515Z,19.63
2023-05-19T17:29:49.157Z,20.57
2023-05-19T17:34:50.772Z,19.94
2023-05-19T17:39:52.375Z,19.27
2023-05-19T17:44:53.921Z,19.78
2023-05-19T17:49:55.682Z,19.82
2023-05-19T17:54:57.384Z,19.36
2023-05-19T17:59:59.826Z,19.87
2023-05-19T18:05:01.776Z,19.71
2023-05-19T18:10:05.061Z,19.06
2023-05-19T18:15:06.846Z,18.64
2023-05-19T18:20:08.753Z,19.42
2023-05-19T18:25:10.256Z,18.84
2023-05-19T18:30:11.805Z,18.53
2023-05-19T18:35:13.290Z,18.18
2023-05-19T18:40:14.788Z,19.28
2023-05-19T18:45:16.313Z,18.42
2023-05-19T18:50:17.793Z,18.39
2023-05-19T18:55:19.287Z,18.41
2023-05-19T19:00:20.774Z,18.31
2023-05-19T19:05:22.281Z,18.22
2023-05-19T19:10:23.778Z,18.80
2023-05-19T19:15:25.977Z,18.56
2023-05-19T19:20:27.705Z,18.54
2023-05-19T19:25:29.221Z,17.78
2023-05-19T19:30:30.899Z,18.29
2023-05-19T19:35:32.408Z,17.49
2023-05-19T19:40:34.148Z,17.78
2023-05-19T19:45:39.139Z,17.69
2023-05-19T19:50:40.792Z,17.52
2023-05-19T19:55:43.033Z,17.33
2023-05-19T20:00:44.582Z,17.67
2023-05-19T20:05:46.070Z,17.13
2023-05-19T20:10:48.157Z,17.01
2023-05-19T20:15:49.993Z,17.32
2023-05-19T20:20:51.576Z,16.88
2023-05-19T20:26:10.144Z,17.24
2023-05-19T20:31:13.854Z,17.25
2023-05-19T20:36:15.616Z,17.48
2023-05-19T20:41:17.380Z,16.64
2023-05-19T20:46:18.887Z,16.60
2023-05-19T20:51:21.668Z,17.15
2023-05-19T20:56:23.258Z,16.71
2023-05-19T21:01:26.239Z,16.51
2023-05-19T21:06:27.834Z,16.48
2023-05-19T21:11:29.911Z,15.99
2023-05-19T21:16:31.923Z,16.65
2023-05-19T21:21:33.804Z,16.55
2023-05-19T21:26:35.620Z,16.55
2023-05-19T21:31:37.262Z,16.65
2023-05-19T21:36:38.853Z,16.65
2023-05-19T21:41:42.197Z,16.18
2023-05-19T21:46:43.803Z,16.35
2023-05-19T21:51:45.339Z,16.15
2023-05-19T21:56:46.844Z,16.30
2023-05-19T22:01:48.398Z,16.42
2023-05-19T22:06:49.899Z,16.39
2023-05-19T22:11:51.718Z,16.37
2023-05-19T22:16:53.314Z,16.16
2023-05-19T22:22:01.921Z,15.73
2023-05-19T22:27:04.077Z,16.22
2023-05-19T22:32:07.600Z,15.93
2023-05-19T22:37:09.096Z,16.05
2023-05-19T22:42:10.587Z,15.84
2023-05-19T22:47:13.771Z,15.92
2023-05-19T22:52:15.619Z,15.96
2023-05-19T22:57:17.112Z,15.85
2023-05-19T23:02:19.743Z,15.54
2023-05-19T23:07:21.242Z,15.68
2023-05-19T23:12:22.722Z,15.49
2023-05-19T23:17:24.259Z,15.48
2023-05-19T23:22:25.862Z,15.54
2023-05-19T23:27:27.352Z,15.72
2023-05-19T23:32:29.051Z,15.40
2023-05-19T23:37:30.694Z,15.38
2023-05-19T23:42:32.205Z,15.31
2023-05-19T23:47:33.717Z,15.58
2023-05-19T23:52:35.317Z,15.58
2023-05-19T23:57:36.815Z,15.58
